• Join FlightAware (Why Join?)
  • Login
  • US Flag 
07:10PM EDT


 

Airport Tracker/Info


-or-


 

Live Flight TrackerFlight Track Log ✈ VNR160 ✈ 23-Apr-2013 ✈ KPDK - KDAL

Flight Track Log - Related Links

Times and Time Zones

All times are in EDT time to prevent confusion due to time zone crossing. See the VNR160 flight status page for this flight to view local times or setup timezone preferences in your user account.

Time Position Orientation Groundspeed Altitude Reporting Facility
EDT Latitude Longitude Course Direction KTS MPH feet Rate Location/Type
03:49PM 33.9000 -84.2833 345° North 161 185 1,900  Level Atlanta TRACON
03:50PM 33.9500 -84.3000 345° North 178 205 3,800 1,740 Climbing Atlanta TRACON
03:51PM 34.0000 -84.3167 345° North 193 222 5,300 600 Climbing Atlanta TRACON
03:53PM 33.9935 -84.4735 259° West  Level Estimated
03:55PM 33.9500 -84.6000 270° West 217 250 6,800  Level Atlanta TRACON
03:56PM 33.9500 -84.6833 270° West 227 261 7,000 60 Climbing Atlanta TRACON
03:57PM 33.9333 -84.7500 253° West 243 280 7,000 120 Level Atlanta TRACON
03:59PM 33.8833 -84.9167 250° West 252 290 7,400 480 Climbing Atlanta TRACON
04:00PM 33.9629 -85.1592 270° West  Level Estimated
04:00PM 33.8492 -84.9842 239° Southwest 250 288 8,600  Level Atlanta Center
04:01PM 33.8111 -85.0514 236° Southwest 257 296 9,600 1,020 Climbing Atlanta Center
04:02PM 33.7831 -85.1336 248° West 257 296 10,700 660 Climbing Atlanta Center
04:03PM 33.7761 -85.2083 264° West 257 296 11,000 120 Climbing Atlanta Center
04:04PM 33.7711 -85.3033 266° West 274 315 11,000 480 Level Atlanta Center
04:05PM 33.7658 -85.3956 266° West 284 327 12,000 1,380 Climbing Atlanta Center
04:06PM 33.7631 -85.4756 268° West 262 302 13,800 1,740 Climbing Atlanta Center
04:07PM 33.7556 -85.5578 264° West 255 293 15,500 1,620 Climbing Atlanta Center
04:08PM 33.7525 -85.6378 267° West 249 287 17,100 1,500 Climbing Atlanta Center
04:09PM 33.7472 -85.7278 266° West 249 287 18,500 1,560 Climbing Atlanta Center
04:10PM 33.7442 -85.8050 267° West 249 287 20,300 1,680 Climbing Atlanta Center
04:11PM 33.7389 -85.8675 264° West 232 267 21,900 1,380 Climbing Atlanta Center
04:12PM 33.7294 -85.9447 262° West 232 267 23,100 960 Climbing Atlanta Center
04:13PM 33.7261 -86.0294 267° West 244 281 23,900 1,200 Climbing Atlanta Center
04:14PM 33.7203 -86.1167 265° West 256 295 25,500 1,440 Climbing Atlanta Center
04:15PM 33.7169 -86.1967 267° West 256 295 26,800 1,200 Climbing Atlanta Center
04:16PM 33.7092 -86.2839 264° West 256 295 27,900 600 Climbing Atlanta Center
04:17PM 33.7031 -86.3786 266° West 262 302 28,000  Climbing Atlanta Center
04:18PM 33.6969 -86.4783 266° West 286 329 28,000  Level Atlanta Center
04:19PM 33.6886 -86.5853 265° West 304 350 28,000  Level Atlanta Center
04:20PM 33.6822 -86.6950 266° West 326 375 28,000  Level Atlanta Center
04:21PM 33.6756 -86.7997 266° West 326 375 28,000  Level Atlanta Center
04:22PM 33.6669 -86.9092 265° West 326 375 28,000  Level Atlanta Center
04:23PM 33.6433 -87.0181 255° West 331 381 28,000  Level Atlanta Center
04:26PM 33.5731 -87.3628 256° West 348 400 28,000  Level Memphis Center
04:27PM 33.5544 -87.4608 257° West 338 389 28,000  Level Memphis Center
04:28PM 33.5297 -87.5686 255° West 338 389 28,000  Level Memphis Center
04:29PM 33.5092 -87.6764 257° West 338 389 28,000  Level Memphis Center
04:30PM 33.4864 -87.7867 256° West 338 389 28,000  Level Memphis Center
04:31PM 33.4636 -87.8944 256° West 338 389 28,000  Level Memphis Center
04:32PM 33.4428 -87.9997 257° West 338 389 28,000  Level Memphis Center
04:33PM 33.4197 -88.1072 256° West 338 389 28,000  Level Memphis Center
04:34PM 33.3989 -88.2272 258° West 338 389 28,000  Level Memphis Center
04:35PM 33.3756 -88.3322 255° West 338 389 28,000  Level Memphis Center
04:36PM 33.3500 -88.4397 254° West 338 389 28,000  Level Memphis Center
04:37PM 33.3289 -88.5472 257° West 338 389 28,000  Level Memphis Center
04:38PM 33.3053 -88.6522 255° West 338 389 28,000  Level Memphis Center
04:39PM 33.2817 -88.7594 255° West 338 389 28,000  Level Memphis Center
04:40PM 33.2578 -88.8667 255° West 338 389 28,000  Level Memphis Center
04:41PM 33.2361 -88.9714 256° West 338 389 28,000  Level Memphis Center
04:42PM 33.2122 -89.0786 255° West 338 389 28,000  Level Memphis Center
04:43PM 33.1883 -89.1831 255° West 338 389 28,000  Level Memphis Center
04:44PM 33.1642 -89.2878 255° West 338 389 28,000  Level Memphis Center
04:45PM 33.1419 -89.3847 255° West 338 389 28,000  Level Memphis Center
04:46PM 33.1197 -89.4867 255° West 338 389 28,000  Level Memphis Center
04:47PM 33.0975 -89.5911 256° West 332 382 28,000  Level Memphis Center
04:48PM 33.0731 -89.6978 255° West 332 382 28,000  Level Memphis Center
04:49PM 33.0528 -89.7994 257° West 332 382 28,000  Level Memphis Center
04:50PM 33.0239 -89.9089 253° West 337 388 28,000  Level Memphis Center
04:51PM 32.9992 -90.0253 256° West 337 388 28,000  Level Memphis Center
04:52PM 32.9744 -90.1319 255° West 331 381 28,000  Level Memphis Center
04:53PM 32.9494 -90.2333 254° West 331 381 28,000  Level Memphis Center
04:54PM 32.9244 -90.3375 254° West 331 381 28,000  Level Memphis Center
04:56PM 32.8764 -90.5428 254° West 326 375 28,000  Level Memphis Center
04:57PM 32.8511 -90.6467 254° West 321 369 28,000  Level Memphis Center
04:58PM 32.8278 -90.7481 255° West 321 369 28,000  Level Memphis Center
04:59PM 32.8047 -90.8517 255° West 321 369 28,000  Level Memphis Center
05:00PM 32.7792 -90.9553 254° West 321 369 28,000  Level Memphis Center
05:01PM 32.7536 -91.0564 253° West 321 369 28,000  Level Memphis Center
05:02PM 32.7300 -91.1575 255° West 321 369 28,000  Level Memphis Center
05:04PM 32.6889 -91.3392 255° West 336 387 28,000  Level Fort Worth Center
05:05PM 32.6622 -91.4397 253° West 336 387 28,000  Level Fort Worth Center
05:06PM 32.6381 -91.5450 255° West 331 381 28,000  Level Fort Worth Center
05:07PM 32.6153 -91.6425 255° West 325 374 28,000  Level Fort Worth Center
05:08PM 32.5889 -91.7453 253° West 325 374 28,000  Level Fort Worth Center
05:09PM 32.5642 -91.8456 254° West 325 374 28,000  Level Fort Worth Center
05:10PM 32.5414 -91.9478 255° West 325 374 28,000  Level Fort Worth Center
05:11PM 32.5189 -92.0528 256° West 325 374 28,000  Level Fort Worth Center
05:12PM 32.5108 -92.1592 265° West 320 368 28,000  Level Fort Worth Center
05:13PM 32.5003 -92.2606 263° West 320 368 28,000  Level Fort Worth Center
05:14PM 32.4942 -92.3669 266° West 325 374 28,000  Level Fort Worth Center
05:15PM 32.4897 -92.4656 267° West 319 367 28,000  Level Fort Worth Center
05:16PM 32.4814 -92.5694 265° West 313 360 28,000  Level Fort Worth Center
05:17PM 32.4728 -92.6733 264° West 313 360 28,000  Level Fort Worth Center
05:18PM 32.4661 -92.7772 266° West 318 366 28,000  Level Fort Worth Center
05:19PM 32.4575 -92.8808 264° West 323 372 28,000  Level Fort Worth Center
05:20PM 32.4508 -92.9872 266° West 323 372 28,000  Level Fort Worth Center
05:21PM 32.4417 -93.0886 264° West 323 372 28,000  Level Fort Worth Center
05:22PM 32.4331 -93.1972 265° West 323 372 28,000  Level Fort Worth Center
05:23PM 32.4239 -93.2986 264° West 323 372 28,000  Level Fort Worth Center
05:24PM 32.4167 -93.4047 265° West 323 372 28,000  Level Fort Worth Center
05:25PM 32.4075 -93.5083 264° West 323 372 28,000  Level Fort Worth Center
05:26PM 32.4003 -93.6119 265° West 323 372 28,000 -300 Level Fort Worth Center
05:27PM 32.4036 -93.7203 272° West 323 372 27,500 -660 Descending Fort Worth Center
05:28PM 32.4044 -93.8258 271° West 328 377 26,700 -780 Descending Fort Worth Center
05:29PM 32.4053 -93.9342 271° West 328 377 26,000 -360 Descending Fort Worth Center
05:30PM 32.4083 -94.0447 272° West 333 383 26,000  Level Fort Worth Center
05:31PM 32.4086 -94.1358 270° West 323 372 26,000  Level Fort Worth Center
05:32PM 32.4094 -94.2417 271° West 323 372 26,000  Level Fort Worth Center
05:33PM 32.4097 -94.3447 270° West 323 372 26,000  Level Fort Worth Center
05:34PM 32.4103 -94.4458 270° West 323 372 26,000  Level Fort Worth Center
05:35PM 32.4125 -94.5489 271° West 317 365 26,000  Level Fort Worth Center
05:36PM 32.4128 -94.6547 270° West 317 365 26,000 -60 Level Fort Worth Center
05:37PM 32.4128 -94.7533 270° West 312 359 25,900 -480 Descending Fort Worth Center
05:38PM 32.4003 -94.8544 262° West 312 359 25,100 -840 Descending Fort Worth Center
05:39PM 32.3856 -94.9558 260° West 312 359 24,300 -600 Descending Fort Worth Center
05:40PM 32.3731 -95.0644 262° West 321 369 24,000 -180 Descending Fort Worth Center
05:41PM 32.3581 -95.1606 260° West 301 346 24,000  Level Fort Worth Center
05:42PM 32.3408 -95.2472 257° West 301 346 24,000 -600 Level Fort Worth Center
05:43PM 32.3531 -95.3453 278° West 296 341 22,900 -1,200 Descending Fort Worth Center
05:44PM 32.3775 -95.4381 287° West 296 341 21,600 -1,500 Descending Fort Worth Center
05:45PM 32.3978 -95.5311 284° West 296 341 20,000 -1,740 Descending Fort Worth Center
05:46PM 32.4158 -95.6267 283° West 296 341 18,200 -1,740 Descending Fort Worth Center
05:47PM 32.4378 -95.7175 286° West 296 341 16,600 -1,560 Descending Fort Worth Center
05:48PM 32.4600 -95.8203 284° West 296 341 15,100 -1,560 Descending Fort Worth Center
05:49PM 32.4781 -95.9186 282° West 296 341 13,600 -1,560 Descending Fort Worth Center
05:50PM 32.4958 -96.0094 283° West 296 341 12,000 -1,440 Descending Fort Worth Center
05:51PM 32.5133 -96.0928 284° West 296 341 10,700 -1,500 Descending Fort Worth Center
05:52PM 32.5353 -96.1961 284° West 296 341 9,000 -1,560 Descending Fort Worth Center
05:53PM 32.5506 -96.2747 283° West 285 328 7,600 -1,500 Descending Fort Worth Center
05:54PM 32.5744 -96.3681 287° West 274 315 6,000 -1,320 Descending Fort Worth Center
05:55PM 32.5981 -96.4467 290° West 274 315 5,000 -900 Descending Fort Worth Center
05:56PM 32.6258 -96.5378 290° West 274 315 4,300 -600 Descending Fort Worth Center
05:57PM 32.6514 -96.6092 293° West 267 307 3,900 -660 Descending Fort Worth Center
05:58PM 32.6997 -96.6853 307° West 267 307 3,000 -480 Descending Fort Worth Center
05:59PM 32.7481 -96.7439 314° West 262 302 3,000 -540 Level Fort Worth Center
06:00PM 32.7817 -96.7858 314° West 199 229 2,000 -900 Descending Fort Worth Center
06:01PM 32.8069 -96.8128 318° Northwest 148 170 1,300 -600 Descending Fort Worth Center
06:02PM 32.8300 -96.8422 313° West 121 139 800 12,300 Descending Fort Worth Center
06:03PM 32.8511 -96.8744 308° West 121 139 26,000 12,600 Climbing Fort Worth Center
06:04PM 32.8719 -96.9039 310° West 121 139 26,000  Level Fort Worth Center
06:05PM 32.8931 -96.9358 308° West 121 139 26,000  Level Fort Worth Center
06:06PM 32.9097 -96.9606 309° West 121 139 26,000  Level Fort Worth Center
06:08PM 32.8471 -96.8518 128° Southeast  Level Estimated